Time,TemperatureF,DewpointF,PressureIn,WindDirection,WindDirectionDegrees,WindSpeedMPH,WindSpeedGustMPH,Humidity,HourlyPrecipIn,Conditions,Clouds,dailyrainin,SoftwareType,DateUTC
2013-05-20 00:01:00,55.6,54.8,30.19,South,180,1.9,4.6,97,0.01,OVC,,0.07,WeatherDisplay:10.37,2013-05-20 04:01:00,
2013-05-20 00:02:00,55.6,54.8,30.19,NNW,337,1.3,4.6,97,0.01,RA,,0.00,WeatherDisplay:10.37,2013-05-20 04:02:00,
2013-05-20 00:07:00,55.6,54.8,30.18,SW,225,1.2,4.6,97,0.01,RA,,0.00,WeatherDisplay:10.37,2013-05-20 04:07:00,
2013-05-20 00:12:00,55.6,54.8,30.18,SE,135,1.4,4.6,97,0.01,RA,,0.00,WeatherDisplay:10.37,2013-05-20 04:12:00,
2013-05-20 00:17:00,55.6,54.8,30.18,SSW,202,2.7,2.7,97,0.01,OVC,,0.00,WeatherDisplay:10.37,2013-05-20 04:17:00,
2013-05-20 00:22:00,55.7,54.9,30.17,NE,45,0.6,2.3,97,0.01,OVC,,0.00,WeatherDisplay:10.37,2013-05-20 04:22:00,
2013-05-20 00:27:00,55.7,54.9,30.17,NE,45,0.9,2.3,97,0.01,OVC,,0.00,WeatherDisplay:10.37,2013-05-20 04:27:00,
2013-05-20 00:32:00,55.7,54.9,30.17,South,180,1.0,2.7,97,0.01,OVC,,0.00,WeatherDisplay:10.37,2013-05-20 04:32:00,
2013-05-20 00:37:00,55.7,54.9,30.17,SE,135,1.5,2.3,97,0.00,OVC,,0.00,WeatherDisplay:10.37,2013-05-20 04:37:00,
2013-05-20 00:42:00,55.7,54.9,30.17,SSW,202,0.1,2.3,97,0.00,OVC,,0.00,WeatherDisplay:10.37,2013-05-20 04:42:00,
2013-05-20 00:47:00,55.8,55.0,30.16,SSE,157,1.2,4.6,97,0.00,OVC,,0.00,WeatherDisplay:10.37,2013-05-20 04:47:00,
2013-05-20 00:52:00,55.9,55.1,30.15,SE,135,1.2,2.3,97,0.00,OVC,,0.00,WeatherDisplay:10.37,2013-05-20 04:52:00,
2013-05-20 00:57:00,55.9,55.1,30.15,SE,135,1.1,1.2,97,0.00,OVC,,0.00,WeatherDisplay:10.37,2013-05-20 04:57:00,
2013-05-20 01:02:00,55.9,55.1,30.15,SE,135,0.2,1.2,97,0.00,OVC,,0.00,WeatherDisplay:10.37,2013-05-20 05:02:00,
2013-05-20 01:07:00,55.9,55.1,30.15,SE,135,0.9,2.7,97,0.00,OVC,,0.00,WeatherDisplay:10.37,2013-05-20 05:07:00,
2013-05-20 01:12:00,56.1,55.3,30.14,SSW,202,1.3,4.6,97,0.00,OVC,,0.00,WeatherDisplay:10.37,2013-05-20 05:12:00,
2013-05-20 01:17:00,56.3,55.5,30.14,NE,45,0.2,2.3,97,0.00,OVC,,0.00,WeatherDisplay:10.37,2013-05-20 05:17:00,
2013-05-20 01:22:00,56.3,55.5,30.14,SE,135,0.9,2.3,97,0.00,OVC,,0.00,WeatherDisplay:10.37,2013-05-20 05:22:00,
2013-05-20 01:27:00,56.3,55.5,30.14,South,180,0.1,2.3,97,0.00,OVC,,0.00,WeatherDisplay:10.37,2013-05-20 05:27:00,
2013-05-20 01:32:00,56.3,55.5,30.14,SE,135,0.0,0.0,97,0.00,OVC,,0.00,WeatherDisplay:10.37,2013-05-20 05:32:00,
2013-05-20 01:37:00,56.4,55.6,30.14,SE,135,0.3,1.3,97,0.00,OVC,,0.00,WeatherDisplay:10.37,2013-05-20 05:37:00,
2013-05-20 01:42:00,56.4,55.6,30.13,SE,135,1.2,2.3,97,0.00,OVC,,0.00,WeatherDisplay:10.37,2013-05-20 05:42:00,
2013-05-20 01:47:00,56.5,55.7,30.13,SE,135,2.0,2.3,97,0.00,OVC,,0.00,WeatherDisplay:10.37,2013-05-20 05:47:00,
2013-05-20 01:52:00,56.6,55.8,30.13,West,270,1.7,2.3,97,0.00,OVC,,0.00,WeatherDisplay:10.37,2013-05-20 05:52:00,
2013-05-20 01:57:00,56.6,55.8,30.13,South,180,0.0,0.0,97,0.00,OVC,,0.00,WeatherDisplay:10.37,2013-05-20 05:57:00,
2013-05-20 02:02:00,56.6,55.8,30.13,SW,225,0.4,1.3,97,0.00,OVC,,0.00,WeatherDisplay:10.37,2013-05-20 06:02:00,
2013-05-20 02:07:00,56.7,55.9,30.12,SSW,202,1.4,5.8,97,0.00,OVC,,0.00,WeatherDisplay:10.37,2013-05-20 06:07:00,
2013-05-20 02:12:00,56.7,55.9,30.11,SSW,202,0.0,0.0,97,0.00,OVC,,0.00,WeatherDisplay:10.37,2013-05-20 06:12:00,
2013-05-20 02:17:00,56.8,56.0,30.11,South,180,0.2,2.3,97,0.00,OVC,,0.00,WeatherDisplay:10.37,2013-05-20 06:17:00,
2013-05-20 02:22:00,56.8,56.0,30.11,SE,135,1.4,2.3,97,0.01,RA,,0.01,WeatherDisplay:10.37,2013-05-20 06:22:00,
2013-05-20 02:27:00,56.9,56.1,30.11,SSW,202,0.0,2.3,97,0.01,RA,,0.01,WeatherDisplay:10.37,2013-05-20 06:27:00,
2013-05-20 02:32:00,56.9,56.1,30.11,SSW,202,0.0,0.0,97,0.01,OVC,,0.01,WeatherDisplay:10.37,2013-05-20 06:32:00,
2013-05-20 02:37:00,56.9,56.1,30.10,SSW,202,0.3,0.0,97,0.01,OVC,,0.01,WeatherDisplay:10.37,2013-05-20 06:37:00,
2013-05-20 02:42:00,56.9,56.1,30.11,SSW,202,0.0,0.0,97,0.01,OVC,,0.01,WeatherDisplay:10.37,2013-05-20 06:42:00,
2013-05-20 02:47:00,56.9,56.1,30.10,South,180,0.0,1.2,97,0.01,OVC,,0.01,WeatherDisplay:10.37,2013-05-20 06:47:00,
2013-05-20 02:52:00,57.1,56.3,30.10,South,180,0.0,0.0,97,0.01,OVC,,0.01,WeatherDisplay:10.37,2013-05-20 06:52:00,
2013-05-20 02:57:00,57.2,56.4,30.10,WNW,292,0.9,2.3,97,0.01,OVC,,0.01,WeatherDisplay:10.37,2013-05-20 06:57:00,
2013-05-20 03:02:00,57.2,56.4,30.10,WNW,292,0.0,0.0,97,0.01,OVC,,0.01,WeatherDisplay:10.37,2013-05-20 07:02:00,
2013-05-20 03:07:00,57.2,56.4,30.09,WNW,292,0.0,0.0,97,0.01,OVC,,0.01,WeatherDisplay:10.37,2013-05-20 07:07:00,
2013-05-20 03:12:00,57.3,56.5,30.09,WNW,292,0.0,1.2,97,0.01,OVC,,0.01,WeatherDisplay:10.37,2013-05-20 07:12:00,
2013-05-20 03:17:00,57.3,56.5,30.08,NE,45,0.0,1.2,97,0.01,OVC,,0.01,WeatherDisplay:10.37,2013-05-20 07:17:00,
2013-05-20 03:22:00,57.4,56.6,30.08,SE,135,0.3,1.3,97,0.01,OVC,,0.01,WeatherDisplay:10.37,2013-05-20 07:22:00,
2013-05-20 03:27:00,57.5,56.7,30.08,South,180,0.8,2.3,97,0.00,OVC,,0.01,WeatherDisplay:10.37,2013-05-20 07:27:00,
2013-05-20 03:32:00,57.5,56.7,30.08,SE,135,0.2,1.2,97,0.00,OVC,,0.01,WeatherDisplay:10.37,2013-05-20 07:32:00,
2013-05-20 03:37:00,57.5,56.7,30.08,SE,135,0.0,0.0,97,0.00,OVC,,0.01,WeatherDisplay:10.37,2013-05-20 07:37:00,
2013-05-20 03:42:00,57.6,56.8,30.07,WSW,247,1.1,2.7,97,0.00,OVC,,0.01,WeatherDisplay:10.37,2013-05-20 07:42:00,
2013-05-20 03:47:00,57.6,56.8,30.07,SW,225,0.6,2.3,97,0.00,OVC,,0.01,WeatherDisplay:10.37,2013-05-20 07:47:00,
2013-05-20 03:52:00,57.7,56.9,30.07,West,270,1.2,2.7,97,0.00,OVC,,0.01,WeatherDisplay:10.37,2013-05-20 07:52:00,
2013-05-20 03:57:00,57.7,56.9,30.06,WSW,247,0.3,2.3,97,0.00,OVC,,0.01,WeatherDisplay:10.37,2013-05-20 07:57:00,
2013-05-20 04:02:00,57.7,56.9,30.06,West,270,0.8,2.3,97,0.00,OVC,,0.01,WeatherDisplay:10.37,2013-05-20 08:02:00,
2013-05-20 04:07:00,57.7,56.9,30.06,WSW,247,1.5,4.6,97,0.00,OVC,,0.01,WeatherDisplay:10.37,2013-05-20 08:07:00,
2013-05-20 04:12:00,57.8,57.0,30.07,West,270,0.0,1.2,97,0.00,OVC,,0.01,WeatherDisplay:10.37,2013-05-20 08:12:00,
2013-05-20 04:17:00,57.8,57.0,30.06,SW,225,0.4,1.3,97,0.00,OVC,,0.01,WeatherDisplay:10.37,2013-05-20 08:17:00,
2013-05-20 04:22:00,57.7,56.9,30.06,WSW,247,0.3,2.3,97,0.00,OVC,,0.01,WeatherDisplay:10.37,2013-05-20 08:22:00,
2013-05-20 04:27:00,57.7,56.9,30.06,WSW,247,0.0,0.0,97,0.00,OVC,,0.01,WeatherDisplay:10.37,2013-05-20 08:27:00,
2013-05-20 04:32:00,57.8,57.0,30.06,SW,225,0.2,1.3,97,0.00,OVC,,0.01,WeatherDisplay:10.37,2013-05-20 08:32:00,
2013-05-20 04:37:00,57.8,57.0,30.06,West,270,0.6,2.7,97,0.00,OVC,,0.01,WeatherDisplay:10.37,2013-05-20 08:37:00,
2013-05-20 04:42:00,57.8,57.0,30.05,WSW,247,0.7,2.3,97,0.00,OVC,,0.01,WeatherDisplay:10.37,2013-05-20 08:42:00,
2013-05-20 04:47:00,57.8,57.0,30.05,SSW,202,0.3,2.3,97,0.00,OVC,,0.01,WeatherDisplay:10.37,2013-05-20 08:47:00,
2013-05-20 04:52:00,57.8,57.0,30.05,NNW,337,0.0,2.3,97,0.00,OVC,,0.01,WeatherDisplay:10.37,2013-05-20 08:52:00,
2013-05-20 04:57:00,57.8,57.0,30.05,SW,225,0.1,2.3,97,0.00,OVC,,0.01,WeatherDisplay:10.37,2013-05-20 08:57:00,
2013-05-20 05:02:00,57.8,57.0,30.05,SW,225,1.2,2.3,97,0.00,OVC,,0.01,WeatherDisplay:10.37,2013-05-20 09:02:00,
2013-05-20 05:07:00,57.8,57.0,30.05,South,180,0.0,1.2,97,0.00,OVC,,0.01,WeatherDisplay:10.37,2013-05-20 09:07:00,
2013-05-20 05:12:00,57.8,57.0,30.04,South,180,0.0,0.0,97,0.00,OVC,,0.01,WeatherDisplay:10.37,2013-05-20 09:12:00,
2013-05-20 05:17:00,57.8,57.0,30.04,South,180,0.0,0.0,97,0.00,OVC,,0.01,WeatherDisplay:10.37,2013-05-20 09:17:00,
2013-05-20 05:22:00,57.8,57.0,30.05,South,180,0.0,0.0,97,0.00,OVC,,0.01,WeatherDisplay:10.37,2013-05-20 09:22:00,
2013-05-20 05:27:00,57.8,57.0,30.05,South,180,0.0,0.0,97,0.00,OVC,,0.01,WeatherDisplay:10.37,2013-05-20 09:27:00,
2013-05-20 05:32:00,57.9,57.1,30.05,South,180,0.4,2.3,97,0.00,OVC,,0.01,WeatherDisplay:10.37,2013-05-20 09:32:00,
2013-05-20 05:37:00,57.9,57.1,30.04,South,180,0.0,1.2,97,0.00,OVC,,0.01,WeatherDisplay:10.37,2013-05-20 09:37:00,
2013-05-20 05:42:00,57.9,57.1,30.05,South,180,0.1,1.3,97,0.00,OVC,,0.01,WeatherDisplay:10.37,2013-05-20 09:42:00,
2013-05-20 05:47:00,57.9,57.1,30.05,South,180,0.0,0.0,97,0.00,OVC,,0.01,WeatherDisplay:10.37,2013-05-20 09:47:00,
2013-05-20 05:52:00,57.9,57.1,30.05,South,180,0.0,0.0,97,0.00,OVC,,0.01,WeatherDisplay:10.37,2013-05-20 09:52:00,
2013-05-20 05:57:00,58.0,57.4,30.04,South,180,1.4,1.4,98,0.00,OVC,,0.01,WeatherDisplay:10.37,2013-05-20 09:57:00,
2013-05-20 06:02:00,58.1,57.5,30.04,South,180,0.0,0.0,98,0.00,OVC,,0.01,WeatherDisplay:10.37,2013-05-20 10:02:00,
2013-05-20 06:07:00,58.1,57.5,30.04,South,180,0.2,1.2,98,0.00,OVC,,0.01,WeatherDisplay:10.37,2013-05-20 10:07:00,
2013-05-20 06:12:00,58.2,57.6,30.05,WSW,247,0.0,2.3,98,0.00,OVC,,0.01,WeatherDisplay:10.37,2013-05-20 10:12:00,
2013-05-20 06:17:00,58.2,57.6,30.04,WSW,247,0.2,1.3,98,0.00,OVC,,0.01,WeatherDisplay:10.37,2013-05-20 10:17:00,
2013-05-20 06:22:00,58.3,57.7,30.04,WSW,247,0.2,0.0,98,0.00,OVC,,0.01,WeatherDisplay:10.37,2013-05-20 10:22:00,
2013-05-20 06:27:00,58.3,57.7,30.04,WSW,247,0.0,0.0,98,0.00,OVC,,0.01,WeatherDisplay:10.37,2013-05-20 10:27:00,
2013-05-20 06:32:00,58.4,57.8,30.05,WSW,247,0.0,0.0,98,0.00,OVC,,0.01,WeatherDisplay:10.37,2013-05-20 10:32:00,
2013-05-20 06:37:00,58.5,57.9,30.04,WSW,247,1.1,2.7,98,0.00,OVC,,0.01,WeatherDisplay:10.37,2013-05-20 10:37:00,
2013-05-20 06:42:00,58.6,58.0,30.04,SW,225,1.2,2.3,98,0.00,OVC,,0.01,WeatherDisplay:10.37,2013-05-20 10:42:00,
2013-05-20 06:47:00,58.7,58.1,30.04,SW,225,1.3,2.3,98,0.00,OVC,,0.01,WeatherDisplay:10.37,2013-05-20 10:47:00,
2013-05-20 06:52:00,58.8,58.2,30.04,West,270,0.7,2.3,98,0.00,OVC,,0.01,WeatherDisplay:10.37,2013-05-20 10:52:00,
2013-05-20 06:57:00,58.8,58.2,30.04,SW,225,0.7,2.3,98,0.00,OVC,,0.01,WeatherDisplay:10.37,2013-05-20 10:57:00,
2013-05-20 07:02:00,58.9,58.3,30.04,WNW,292,1.4,2.3,98,0.00,OVC,,0.01,WeatherDisplay:10.37,2013-05-20 11:02:00,
2013-05-20 07:07:00,59.1,58.5,30.04,WSW,247,0.9,2.7,98,0.00,OVC,,0.01,WeatherDisplay:10.37,2013-05-20 11:07:00,
2013-05-20 07:12:00,59.3,58.7,30.04,West,270,1.4,2.7,98,0.00,OVC,,0.01,WeatherDisplay:10.37,2013-05-20 11:12:00,
2013-05-20 07:17:00,59.6,59.0,30.04,SW,225,0.6,1.3,98,0.00,OVC,,0.01,WeatherDisplay:10.37,2013-05-20 11:17:00,
2013-05-20 07:22:00,59.7,59.1,30.04,WSW,247,2.2,4.6,98,0.00,OVC,,0.01,WeatherDisplay:10.37,2013-05-20 11:22:00,
2013-05-20 07:27:00,59.9,59.3,30.05,WNW,292,2.8,2.8,98,0.00,OVC,,0.01,WeatherDisplay:10.37,2013-05-20 11:27:00,
2013-05-20 07:32:00,59.9,59.3,30.05,NNW,337,0.7,2.7,98,0.00,OVC,,0.01,WeatherDisplay:10.37,2013-05-20 11:32:00,
2013-05-20 07:37:00,60.1,59.5,30.04,South,180,1.0,2.7,98,0.00,OVC,,0.01,WeatherDisplay:10.37,2013-05-20 11:37:00,
2013-05-20 07:42:00,60.2,59.6,30.04,West,270,2.2,4.6,98,0.00,OVC,,0.01,WeatherDisplay:10.37,2013-05-20 11:42:00,
2013-05-20 07:47:00,60.3,59.7,30.04,North,360,2.4,4.6,98,0.00,OVC,,0.01,WeatherDisplay:10.37,2013-05-20 11:47:00,
2013-05-20 07:52:00,60.4,59.8,30.04,North,360,1.0,4.1,98,0.00,OVC,,0.01,WeatherDisplay:10.37,2013-05-20 11:52:00,
2013-05-20 07:57:00,60.5,59.9,30.04,NNW,337,3.1,3.1,98,0.00,OVC,,0.01,WeatherDisplay:10.37,2013-05-20 11:57:00,
2013-05-20 08:02:00,60.8,60.2,30.04,SSE,157,1.3,2.7,98,0.00,OVC,,0.01,WeatherDisplay:10.37,2013-05-20 12:02:00,
2013-05-20 08:07:00,61.0,60.4,30.04,SSW,202,0.5,1.3,98,0.00,OVC,,0.01,WeatherDisplay:10.37,2013-05-20 12:07:00,
2013-05-20 08:12:00,61.4,60.8,30.04,NW,315,1.8,4.6,98,0.00,OVC,,0.01,WeatherDisplay:10.37,2013-05-20 12:12:00,
2013-05-20 08:17:00,61.5,60.9,30.04,West,270,1.3,2.7,98,0.00,OVC,,0.01,WeatherDisplay:10.37,2013-05-20 12:17:00,
2013-05-20 08:22:00,61.5,60.9,30.05,WSW,247,2.6,5.8,98,0.00,OVC,,0.01,WeatherDisplay:10.37,2013-05-20 12:22:00,
2013-05-20 08:27:00,61.7,61.1,30.05,North,360,1.5,4.6,98,0.00,OVC,,0.01,WeatherDisplay:10.37,2013-05-20 12:27:00,
2013-05-20 08:32:00,61.7,61.1,30.05,WNW,292,1.8,5.8,98,0.00,OVC,,0.01,WeatherDisplay:10.37,2013-05-20 12:32:00,
2013-05-20 08:37:00,61.8,61.2,30.05,NNE,22,1.9,4.6,98,0.00,OVC,,0.01,WeatherDisplay:10.37,2013-05-20 12:37:00,
2013-05-20 08:42:00,61.9,61.3,30.05,West,270,3.5,5.8,98,0.00,OVC,,0.01,WeatherDisplay:10.37,2013-05-20 12:42:00,
2013-05-20 08:47:00,61.9,61.3,30.05,WNW,292,2.2,5.8,98,0.00,OVC,,0.01,WeatherDisplay:10.37,2013-05-20 12:47:00,
2013-05-20 08:52:00,62.1,61.5,30.05,WNW,292,0.9,4.1,98,0.00,OVC,,0.01,WeatherDisplay:10.37,2013-05-20 12:52:00,
2013-05-20 08:57:00,62.3,61.7,30.05,NE,45,1.2,4.6,98,0.00,OVC,,0.01,WeatherDisplay:10.37,2013-05-20 12:57:00,
2013-05-20 09:02:00,62.8,62.2,30.05,West,270,1.6,2.7,98,0.00,OVC,,0.01,WeatherDisplay:10.37,2013-05-20 13:02:00,
2013-05-20 09:07:00,62.9,62.0,30.05,West,270,1.7,2.3,97,0.00,OVC,,0.01,WeatherDisplay:10.37,2013-05-20 13:07:00,
2013-05-20 09:12:00,63.4,62.2,30.05,North,360,2.8,4.6,96,0.00,OVC,,0.01,WeatherDisplay:10.37,2013-05-20 13:12:00,
2013-05-20 09:17:00,63.9,62.4,30.05,WNW,292,2.4,2.7,95,0.00,OVC,,0.01,WeatherDisplay:10.37,2013-05-20 13:17:00,
2013-05-20 09:22:00,64.6,62.5,30.05,North,360,4.6,10.4,93,0.00,OVC,,0.01,WeatherDisplay:10.37,2013-05-20 13:22:00,
2013-05-20 09:27:00,64.9,61.9,30.05,South,180,4.6,8.1,90,0.00,OVC,,0.01,WeatherDisplay:10.37,2013-05-20 13:27:00,
2013-05-20 09:32:00,64.9,61.6,30.04,North,360,4.0,5.8,89,0.00,OVC,,0.01,WeatherDisplay:10.37,2013-05-20 13:32:00,
2013-05-20 09:37:00,65.7,62.7,30.04,NW,315,2.0,4.6,90,0.00,OVC,,0.01,WeatherDisplay:10.37,2013-05-20 13:37:00,
2013-05-20 09:42:00,66.0,62.0,30.04,South,180,3.6,6.9,87,0.00,SCT,,0.01,WeatherDisplay:10.37,2013-05-20 13:42:00,
2013-05-20 09:47:00,66.6,63.3,30.04,North,360,1.7,4.6,89,0.00,SCT,,0.01,WeatherDisplay:10.37,2013-05-20 13:47:00,
2013-05-20 09:52:00,67.4,63.4,30.04,West,270,3.6,9.2,87,0.00,SCT,,0.01,WeatherDisplay:10.37,2013-05-20 13:52:00,
2013-05-20 09:57:00,67.7,63.4,30.04,West,270,3.7,5.8,86,0.00,SCT,,0.01,WeatherDisplay:10.37,2013-05-20 13:57:00,
2013-05-20 10:02:00,67.7,62.3,30.04,SSW,202,3.4,5.8,83,0.00,CLR,,0.01,WeatherDisplay:10.37,2013-05-20 14:02:00,
2013-05-20 10:07:00,68.1,63.8,30.04,WSW,247,2.1,5.8,86,0.00,CLR,,0.01,WeatherDisplay:10.37,2013-05-20 14:07:00,
2013-05-20 10:12:00,68.8,63.4,30.04,West,270,3.8,6.9,83,0.00,CLR,,0.01,WeatherDisplay:10.37,2013-05-20 14:12:00,
2013-05-20 10:17:00,69.5,64.1,30.03,WNW,292,3.9,8.1,83,0.00,CLR,,0.01,WeatherDisplay:10.37,2013-05-20 14:17:00,
2013-05-20 10:22:00,69.8,63.3,30.03,West,270,2.7,4.6,80,0.01,RA,,0.02,WeatherDisplay:10.37,2013-05-20 14:22:00,
2013-05-20 10:27:00,70.2,63.7,30.03,SSE,157,1.5,5.8,80,0.01,RA,,0.02,WeatherDisplay:10.37,2013-05-20 14:27:00,
2013-05-20 10:32:00,70.8,63.6,30.03,South,180,5.1,16.1,78,0.01,CLR,,0.02,WeatherDisplay:10.37,2013-05-20 14:32:00,
2013-05-20 10:37:00,70.7,63.1,30.03,SW,225,3.8,5.8,77,0.01,CLR,,0.02,WeatherDisplay:10.37,2013-05-20 14:37:00,
2013-05-20 10:42:00,70.8,63.2,30.03,WNW,292,3.7,8.1,77,0.01,CLR,,0.02,WeatherDisplay:10.37,2013-05-20 14:42:00,
2013-05-20 10:47:00,71.1,62.8,30.03,WNW,292,7.0,12.7,75,0.01,CLR,,0.02,WeatherDisplay:10.37,2013-05-20 14:47:00,
2013-05-20 10:52:00,71.5,64.3,30.03,NNW,337,3.6,5.8,78,0.01,CLR,,0.02,WeatherDisplay:10.37,2013-05-20 14:52:00,
2013-05-20 10:57:00,72.0,63.3,30.03,South,180,4.2,8.1,74,0.01,CLR,,0.02,WeatherDisplay:10.37,2013-05-20 14:57:00,
2013-05-20 11:02:00,72.5,64.9,30.04,West,270,3.3,5.8,77,0.01,FEW,,0.02,WeatherDisplay:10.37,2013-05-20 15:02:00,
2013-05-20 11:07:00,72.6,63.8,30.04,West,270,3.9,5.8,74,0.01,FEW,,0.02,WeatherDisplay:10.37,2013-05-20 15:07:00,
2013-05-20 11:12:00,72.8,63.6,30.03,North,360,4.0,9.2,73,0.01,FEW,,0.02,WeatherDisplay:10.37,2013-05-20 15:12:00,
2013-05-20 11:17:00,73.8,65.0,30.03,West,270,1.8,2.3,74,0.01,FEW,,0.02,WeatherDisplay:10.37,2013-05-20 15:17:00,
2013-05-20 11:22:00,74.3,64.3,30.03,West,270,4.6,5.8,71,0.01,FEW,,0.02,WeatherDisplay:10.37,2013-05-20 15:22:00,
2013-05-20 11:27:00,74.6,64.6,30.03,North,360,2.9,2.9,71,0.01,FEW,,0.02,WeatherDisplay:10.37,2013-05-20 15:27:00,
2013-05-20 11:32:00,75.1,63.8,30.03,NNE,22,3.0,5.8,68,0.00,FEW,,0.02,WeatherDisplay:10.37,2013-05-20 15:32:00,
2013-05-20 11:37:00,74.9,64.0,30.03,SW,225,4.3,9.2,69,0.00,FEW,,0.02,WeatherDisplay:10.37,2013-05-20 15:37:00,
2013-05-20 11:42:00,75.3,63.6,30.02,NW,315,4.7,8.1,67,0.00,FEW,,0.02,WeatherDisplay:10.37,2013-05-20 15:42:00,
2013-05-20 11:47:00,75.4,63.7,30.03,North,360,5.3,8.1,67,0.00,FEW,,0.02,WeatherDisplay:10.37,2013-05-20 15:47:00,
2013-05-20 11:52:00,75.5,64.2,30.02,West,270,3.7,8.1,68,0.00,FEW,,0.02,WeatherDisplay:10.37,2013-05-20 15:52:00,
2013-05-20 11:57:00,75.5,64.6,30.02,West,270,4.6,9.2,69,0.00,FEW,,0.02,WeatherDisplay:10.37,2013-05-20 15:57:00,
2013-05-20 12:02:00,76.1,63.9,30.02,North,360,2.9,4.6,66,0.00,FEW,,0.02,WeatherDisplay:10.37,2013-05-20 16:02:00,
2013-05-20 12:07:00,76.3,64.5,30.01,North,360,4.1,6.9,67,0.00,FEW,,0.02,WeatherDisplay:10.37,2013-05-20 16:07:00,
2013-05-20 12:12:00,76.6,66.1,30.01,NW,315,3.0,6.9,70,0.00,SCT,,0.02,WeatherDisplay:10.37,2013-05-20 16:12:00,
2013-05-20 12:17:00,77.2,64.1,30.01,WNW,292,4.3,8.1,64,0.00,SCT,,0.02,WeatherDisplay:10.37,2013-05-20 16:17:00,
2013-05-20 12:22:00,77.5,64.4,30.01,NW,315,3.0,5.8,64,0.00,SCT,,0.02,WeatherDisplay:10.37,2013-05-20 16:22:00,
2013-05-20 12:27:00,77.8,63.7,30.01,WNW,292,3.4,5.8,62,0.00,SCT,,0.02,WeatherDisplay:10.37,2013-05-20 16:27:00,
2013-05-20 12:32:00,78.0,64.4,30.01,West,270,2.8,5.8,63,0.00,SCT,,0.02,WeatherDisplay:10.37,2013-05-20 16:32:00,
2013-05-20 12:37:00,77.8,63.7,30.01,WSW,247,4.3,10.4,62,0.00,SCT,,0.02,WeatherDisplay:10.37,2013-05-20 16:37:00,
2013-05-20 12:42:00,78.2,63.6,30.01,West,270,2.3,6.9,61,0.00,SCT,,0.02,WeatherDisplay:10.37,2013-05-20 16:42:00,
2013-05-20 12:47:00,78.7,64.6,30.01,NW,315,3.0,9.5,62,0.00,SCT,,0.02,WeatherDisplay:10.37,2013-05-20 16:47:00,
2013-05-20 12:52:00,78.7,64.6,30.01,SE,135,3.2,8.1,62,0.00,SCT,,0.02,WeatherDisplay:10.37,2013-05-20 16:52:00,
2013-05-20 12:57:00,78.9,64.3,30.01,NE,45,2.4,5.8,61,0.00,SCT,,0.02,WeatherDisplay:10.37,2013-05-20 16:57:00,
2013-05-20 13:02:00,79.2,63.1,30.01,South,180,3.4,9.2,58,0.00,SCT,,0.02,WeatherDisplay:10.37,2013-05-20 17:02:00,
2013-05-20 13:07:00,79.7,63.1,30.01,West,270,4.1,5.8,57,0.00,SCT,,0.02,WeatherDisplay:10.37,2013-05-20 17:07:00,
2013-05-20 13:12:00,79.5,63.9,30.01,SSW,202,3.1,6.9,59,0.00,SCT,,0.02,WeatherDisplay:10.37,2013-05-20 17:12:00,
2013-05-20 13:17:00,79.4,63.3,30.00,NNW,337,4.8,4.8,58,0.00,SCT,,0.02,WeatherDisplay:10.37,2013-05-20 17:17:00,
2013-05-20 13:22:00,79.2,62.7,30.01,West,270,3.7,6.9,57,0.00,SCT,,0.02,WeatherDisplay:10.37,2013-05-20 17:22:00,
2013-05-20 13:27:00,79.8,63.7,30.00,West,270,3.1,5.8,58,0.00,SCT,,0.02,WeatherDisplay:10.37,2013-05-20 17:27:00,
2013-05-20 13:32:00,80.1,64.0,30.00,West,270,2.8,8.1,58,0.00,SCT,,0.02,WeatherDisplay:10.37,2013-05-20 17:32:00,
2013-05-20 13:37:00,79.3,62.7,30.00,WNW,292,8.0,9.2,57,0.00,SCT,,0.02,WeatherDisplay:10.37,2013-05-20 17:37:00,
2013-05-20 13:42:00,79.4,62.8,30.00,North,360,1.8,4.1,57,0.00,SCT,,0.02,WeatherDisplay:10.37,2013-05-20 17:42:00,
2013-05-20 13:47:00,80.3,63.2,29.99,West,270,2.9,5.8,56,0.00,SCT,,0.02,WeatherDisplay:10.37,2013-05-20 17:47:00,
2013-05-20 13:52:00,80.2,63.1,29.99,SSE,157,1.9,8.1,56,0.00,SCT,,0.02,WeatherDisplay:10.37,2013-05-20 17:52:00,
2013-05-20 13:57:00,80.4,61.7,29.99,West,270,3.6,8.1,53,0.00,SCT,,0.02,WeatherDisplay:10.37,2013-05-20 17:57:00,
2013-05-20 14:02:00,80.5,62.8,29.99,West,270,2.1,2.7,55,0.00,CLR,,0.02,WeatherDisplay:10.37,2013-05-20 18:02:00,
2013-05-20 14:07:00,80.1,63.5,29.99,WSW,247,4.5,6.9,57,0.00,CLR,,0.02,WeatherDisplay:10.37,2013-05-20 18:07:00,
2013-05-20 14:12:00,80.1,63.0,29.99,SE,135,3.0,6.9,56,0.00,CLR,,0.02,WeatherDisplay:10.37,2013-05-20 18:12:00,
2013-05-20 14:17:00,80.1,62.0,29.99,SSW,202,5.1,9.2,54,0.00,CLR,,0.02,WeatherDisplay:10.37,2013-05-20 18:17:00,
2013-05-20 14:22:00,80.2,63.1,29.99,NW,315,3.7,8.1,56,0.00,CLR,,0.02,WeatherDisplay:10.37,2013-05-20 18:22:00,
2013-05-20 14:27:00,80.3,62.7,29.99,WNW,292,5.0,8.1,55,0.00,CLR,,0.02,WeatherDisplay:10.37,2013-05-20 18:27:00,
2013-05-20 14:32:00,80.5,63.9,29.99,West,270,4.1,8.1,57,0.00,CLR,,0.02,WeatherDisplay:10.37,2013-05-20 18:32:00,
2013-05-20 14:37:00,80.3,63.2,29.99,WSW,247,3.3,8.1,56,0.00,CLR,,0.02,WeatherDisplay:10.37,2013-05-20 18:37:00,
2013-05-20 14:42:00,80.6,62.9,29.99,SSW,202,4.3,5.8,55,0.00,CLR,,0.02,WeatherDisplay:10.37,2013-05-20 18:42:00,
2013-05-20 14:47:00,80.7,63.5,29.98,SW,225,3.4,5.8,56,0.00,CLR,,0.02,WeatherDisplay:10.37,2013-05-20 18:47:00,
2013-05-20 14:52:00,81.2,63.5,29.98,West,270,1.7,4.6,55,0.00,CLR,,0.02,WeatherDisplay:10.37,2013-05-20 18:52:00,
2013-05-20 14:57:00,81.4,63.2,29.98,NE,45,2.7,2.7,54,0.00,CLR,,0.02,WeatherDisplay:10.37,2013-05-20 18:57:00,
2013-05-20 15:02:00,82.4,64.1,29.98,SE,135,2.3,2.7,54,0.00,CLR,,0.02,WeatherDisplay:10.37,2013-05-20 19:02:00,
2013-05-20 15:07:00,82.3,62.9,29.98,North,360,3.2,5.8,52,0.00,CLR,,0.02,WeatherDisplay:10.37,2013-05-20 19:07:00,
2013-05-20 15:12:00,82.4,63.5,29.98,North,360,2.8,6.9,53,0.00,CLR,,0.02,WeatherDisplay:10.37,2013-05-20 19:12:00,
2013-05-20 15:17:00,82.4,63.0,29.98,West,270,3.1,8.1,52,0.00,CLR,,0.02,WeatherDisplay:10.37,2013-05-20 19:17:00,
2013-05-20 15:22:00,82.3,64.0,29.99,North,360,2.7,6.9,54,0.00,CLR,,0.02,WeatherDisplay:10.37,2013-05-20 19:22:00,
2013-05-20 15:27:00,82.3,62.4,29.99,North,360,3.1,5.8,51,0.00,CLR,,0.02,WeatherDisplay:10.37,2013-05-20 19:27:00,
2013-05-20 15:32:00,82.8,63.4,29.99,NW,315,3.2,9.2,52,0.00,CLR,,0.02,WeatherDisplay:10.37,2013-05-20 19:32:00,
2013-05-20 15:37:00,82.3,62.9,29.99,West,270,4.4,8.1,52,0.00,CLR,,0.02,WeatherDisplay:10.37,2013-05-20 19:37:00,
2013-05-20 15:42:00,82.1,64.8,29.99,West,270,2.6,4.6,56,0.00,CLR,,0.02,WeatherDisplay:10.37,2013-05-20 19:42:00,
2013-05-20 15:47:00,81.9,63.6,29.99,NW,315,4.7,10.4,54,0.00,CLR,,0.02,WeatherDisplay:10.37,2013-05-20 19:47:00,
2013-05-20 15:52:00,82.1,63.8,29.99,West,270,2.5,2.5,54,0.00,CLR,,0.02,WeatherDisplay:10.37,2013-05-20 19:52:00,
2013-05-20 15:57:00,82.0,62.6,29.99,North,360,6.0,9.2,52,0.00,CLR,,0.02,WeatherDisplay:10.37,2013-05-20 19:57:00,
2013-05-20 16:02:00,82.6,63.7,29.98,West,270,1.8,5.8,53,0.00,SCT,,0.02,WeatherDisplay:10.37,2013-05-20 20:02:00,
2013-05-20 16:07:00,82.5,63.1,29.98,West,270,3.4,5.8,52,0.00,SCT,,0.02,WeatherDisplay:10.37,2013-05-20 20:07:00,
2013-05-20 16:12:00,82.6,62.1,29.98,NNE,22,1.2,2.7,50,0.00,SCT,,0.02,WeatherDisplay:10.37,2013-05-20 20:12:00,
2013-05-20 16:17:00,82.3,63.5,29.97,West,270,4.4,8.1,53,0.00,SCT,,0.02,WeatherDisplay:10.37,2013-05-20 20:17:00,
2013-05-20 16:22:00,82.3,62.9,29.97,WNW,292,3.9,6.9,52,0.00,SCT,,0.02,WeatherDisplay:10.37,2013-05-20 20:22:00,
2013-05-20 16:27:00,82.2,63.9,29.97,West,270,1.5,2.3,54,0.00,SCT,,0.02,WeatherDisplay:10.37,2013-05-20 20:27:00,
2013-05-20 16:32:00,82.0,62.6,29.97,West,270,3.3,5.8,52,0.00,SCT,,0.02,WeatherDisplay:10.37,2013-05-20 20:32:00,
2013-05-20 16:37:00,82.5,63.1,29.97,WSW,247,2.3,2.3,52,0.00,SCT,,0.02,WeatherDisplay:10.37,2013-05-20 20:37:00,
2013-05-20 16:42:00,82.2,62.8,29.97,West,270,4.2,5.8,52,0.00,SCT,,0.02,WeatherDisplay:10.37,2013-05-20 20:42:00,
2013-05-20 16:47:00,81.8,63.5,29.97,NNW,337,2.1,2.7,54,0.00,SCT,,0.02,WeatherDisplay:10.37,2013-05-20 20:47:00,
2013-05-20 16:52:00,81.6,62.8,29.97,WSW,247,1.2,2.3,53,0.00,SCT,,0.02,WeatherDisplay:10.37,2013-05-20 20:52:00,
2013-05-20 16:57:00,81.8,63.0,29.97,SW,225,2.7,2.7,53,0.00,SCT,,0.02,WeatherDisplay:10.37,2013-05-20 20:57:00,
2013-05-20 17:02:00,81.9,63.6,29.97,NW,315,2.4,2.4,54,0.00,BKN,,0.02,WeatherDisplay:10.37,2013-05-20 21:02:00,
2013-05-20 17:07:00,81.6,63.3,29.97,NE,45,4.7,5.8,54,0.00,BKN,,0.02,WeatherDisplay:10.37,2013-05-20 21:07:00,
2013-05-20 17:12:00,81.6,63.9,29.97,NE,45,2.6,4.6,55,0.00,BKN,,0.02,WeatherDisplay:10.37,2013-05-20 21:12:00,
2013-05-20 17:17:00,81.6,63.3,29.97,West,270,2.5,5.8,54,0.00,BKN,,0.02,WeatherDisplay:10.37,2013-05-20 21:17:00,
2013-05-20 17:22:00,81.4,62.6,29.96,West,270,3.2,5.8,53,0.00,BKN,,0.02,WeatherDisplay:10.37,2013-05-20 21:22:00,
2013-05-20 17:27:00,80.8,63.6,29.97,West,270,2.1,4.6,56,0.00,BKN,,0.02,WeatherDisplay:10.37,2013-05-20 21:27:00,
2013-05-20 17:32:00,80.4,62.8,29.97,North,360,3.0,5.8,55,0.00,BKN,,0.02,WeatherDisplay:10.37,2013-05-20 21:32:00,
2013-05-20 17:37:00,80.5,63.4,29.97,West,270,2.5,2.7,56,0.00,BKN,,0.02,WeatherDisplay:10.37,2013-05-20 21:37:00,
2013-05-20 17:42:00,80.8,63.1,29.97,West,270,1.4,2.7,55,0.00,BKN,,0.02,WeatherDisplay:10.37,2013-05-20 21:42:00,
2013-05-20 17:47:00,81.1,63.9,29.97,WNW,292,1.6,2.3,56,0.00,BKN,,0.02,WeatherDisplay:10.37,2013-05-20 21:47:00,
2013-05-20 17:52:00,80.7,63.5,29.97,West,270,1.9,2.3,56,0.00,BKN,,0.02,WeatherDisplay:10.37,2013-05-20 21:52:00,
2013-05-20 17:57:00,80.4,63.8,29.97,NNW,337,2.5,5.8,57,0.00,BKN,,0.02,WeatherDisplay:10.37,2013-05-20 21:57:00,
2013-05-20 18:02:00,80.0,63.4,29.97,NNW,337,3.1,5.8,57,0.00,BKN,,0.02,WeatherDisplay:10.37,2013-05-20 22:02:00,
2013-05-20 18:07:00,79.9,63.8,29.97,WNW,292,2.0,2.3,58,0.00,BKN,,0.02,WeatherDisplay:10.37,2013-05-20 22:07:00,
2013-05-20 18:12:00,79.5,62.9,29.97,North,360,4.0,6.9,57,0.00,BKN,,0.02,WeatherDisplay:10.37,2013-05-20 22:12:00,
2013-05-20 18:17:00,79.5,63.4,29.97,West,270,2.5,2.7,58,0.00,BKN,,0.02,WeatherDisplay:10.37,2013-05-20 22:17:00,
2013-05-20 18:22:00,79.4,64.3,29.97,WNW,292,1.4,2.3,60,0.00,BKN,,0.02,WeatherDisplay:10.37,2013-05-20 22:22:00,
2013-05-20 18:27:00,79.2,63.1,29.97,West,270,2.6,2.7,58,0.00,BKN,,0.02,WeatherDisplay:10.37,2013-05-20 22:27:00,
2013-05-20 18:32:00,79.2,64.6,29.97,WNW,292,2.2,5.8,61,0.00,BKN,,0.02,WeatherDisplay:10.37,2013-05-20 22:32:00,
2013-05-20 18:37:00,79.1,63.5,29.97,SW,225,1.2,2.3,59,0.00,BKN,,0.02,WeatherDisplay:10.37,2013-05-20 22:37:00,
2013-05-20 18:42:00,78.9,63.8,29.97,North,360,3.6,5.8,60,0.00,BKN,,0.02,WeatherDisplay:10.37,2013-05-20 22:42:00,
2013-05-20 18:47:00,78.7,63.6,29.97,NW,315,1.1,2.3,60,0.00,BKN,,0.02,WeatherDisplay:10.37,2013-05-20 22:47:00,
2013-05-20 18:52:00,78.5,64.4,29.97,West,270,2.2,4.6,62,0.00,BKN,,0.02,WeatherDisplay:10.37,2013-05-20 22:52:00,
2013-05-20 18:57:00,78.2,64.1,29.97,West,270,1.4,2.3,62,0.00,BKN,,0.02,WeatherDisplay:10.37,2013-05-20 22:57:00,
2013-05-20 19:02:00,77.9,63.8,29.97,WNW,292,1.0,2.3,62,0.00,CLR,,0.02,WeatherDisplay:10.37,2013-05-20 23:02:00,
2013-05-20 19:07:00,77.8,64.2,29.96,WNW,292,1.3,1.3,63,0.00,CLR,,0.02,WeatherDisplay:10.37,2013-05-20 23:07:00,
2013-05-20 19:12:00,77.7,65.0,29.96,WNW,292,0.3,1.2,65,0.00,CLR,,0.02,WeatherDisplay:10.37,2013-05-20 23:12:00,
2013-05-20 19:17:00,77.4,65.1,29.96,WNW,292,0.0,0.0,66,0.00,CLR,,0.02,WeatherDisplay:10.37,2013-05-20 23:17:00,
2013-05-20 19:22:00,76.8,64.6,29.96,WNW,292,0.0,0.0,66,0.00,CLR,,0.02,WeatherDisplay:10.37,2013-05-20 23:22:00,
2013-05-20 19:28:00,76.1,65.2,29.96,WNW,292,0.0,0.0,69,0.00,CLR,,0.02,WeatherDisplay:10.37,2013-05-20 23:28:00,
2013-05-20 19:32:00,75.5,64.6,29.96,WNW,292,0.0,0.0,69,0.00,CLR,,0.02,WeatherDisplay:10.37,2013-05-20 23:32:00,
2013-05-20 19:37:00,74.9,64.5,29.96,WNW,292,0.0,0.0,70,0.00,CLR,,0.02,WeatherDisplay:10.37,2013-05-20 23:37:00,
2013-05-20 19:42:00,74.3,64.3,29.96,WNW,292,0.0,0.0,71,0.00,CLR,,0.02,WeatherDisplay:10.37,2013-05-20 23:42:00,
2013-05-20 19:47:00,73.7,64.1,29.96,WNW,292,0.0,0.0,72,0.00,CLR,,0.02,WeatherDisplay:10.37,2013-05-20 23:47:00,
2013-05-20 19:52:00,73.2,63.6,29.96,WNW,292,0.0,0.0,72,0.00,CLR,,0.02,WeatherDisplay:10.37,2013-05-20 23:52:00,
2013-05-20 19:57:00,72.7,64.3,29.95,WNW,292,0.0,0.0,75,0.00,CLR,,0.02,WeatherDisplay:10.37,2013-05-20 23:57:00,
2013-05-20 20:02:00,72.2,63.8,29.96,WNW,292,0.0,0.0,75,0.00,BKN,,0.02,WeatherDisplay:10.37,2013-05-21 00:02:00,
2013-05-20 20:07:00,71.7,64.1,29.96,WNW,292,0.0,0.0,77,0.00,BKN,,0.02,WeatherDisplay:10.37,2013-05-21 00:07:00,
2013-05-20 20:12:00,71.3,64.8,29.96,WNW,292,0.0,0.0,80,0.00,BKN,,0.02,WeatherDisplay:10.37,2013-05-21 00:12:00,
2013-05-20 20:17:00,71.1,64.3,29.96,WNW,292,0.0,0.0,79,0.00,BKN,,0.02,WeatherDisplay:10.37,2013-05-21 00:17:00,
2013-05-20 20:22:00,70.9,64.1,29.96,WNW,292,0.0,0.0,79,0.00,BKN,,0.02,WeatherDisplay:10.37,2013-05-21 00:22:00,
2013-05-20 20:27:00,70.7,64.9,29.96,WNW,292,0.0,0.0,82,0.00,BKN,,0.02,WeatherDisplay:10.37,2013-05-21 00:27:00,
2013-05-20 20:32:00,70.6,65.2,29.97,WNW,292,0.0,0.0,83,0.00,BKN,,0.02,WeatherDisplay:10.37,2013-05-21 00:32:00,
2013-05-20 20:37:00,70.5,65.1,29.97,WNW,292,0.0,0.0,83,0.00,BKN,,0.02,WeatherDisplay:10.37,2013-05-21 00:37:00,
2013-05-20 20:43:00,70.3,65.2,29.97,WNW,292,0.0,0.0,84,0.00,BKN,,0.02,WeatherDisplay:10.37,2013-05-21 00:43:00,
2013-05-20 20:47:00,69.9,65.5,29.97,WNW,292,0.0,0.0,86,0.00,BKN,,0.02,WeatherDisplay:10.37,2013-05-21 00:47:00,
2013-05-20 20:52:00,69.7,65.3,29.97,WNW,292,0.0,0.0,86,0.00,BKN,,0.02,WeatherDisplay:10.37,2013-05-21 00:52:00,
2013-05-20 20:57:00,69.4,65.4,29.98,WNW,292,0.0,0.0,87,0.00,BKN,,0.02,WeatherDisplay:10.37,2013-05-21 00:57:00,
2013-05-20 21:02:00,69.2,65.8,29.98,WNW,292,0.0,0.0,89,0.00,FEW,,0.02,WeatherDisplay:10.37,2013-05-21 01:02:00,
2013-05-20 21:07:00,69.2,64.5,29.98,WNW,292,0.5,2.3,85,0.00,FEW,,0.02,WeatherDisplay:10.37,2013-05-21 01:07:00,
2013-05-20 21:12:00,69.3,65.3,29.98,WNW,292,0.0,0.0,87,0.00,FEW,,0.02,WeatherDisplay:10.37,2013-05-21 01:12:00,
2013-05-20 21:17:00,69.1,65.4,29.98,WNW,292,0.0,0.0,88,0.00,FEW,,0.02,WeatherDisplay:10.37,2013-05-21 01:17:00,
2013-05-20 21:22:00,68.9,65.2,29.97,WNW,292,0.0,0.0,88,0.00,FEW,,0.02,WeatherDisplay:10.37,2013-05-21 01:22:00,
2013-05-20 21:27:00,68.7,65.3,29.98,WNW,292,0.0,0.0,89,0.00,FEW,,0.02,WeatherDisplay:10.37,2013-05-21 01:27:00,
2013-05-20 21:32:00,68.6,65.2,29.97,WNW,292,0.1,1.2,89,0.00,FEW,,0.02,WeatherDisplay:10.37,2013-05-21 01:32:00,
2013-05-20 21:37:00,68.2,65.5,29.97,WNW,292,0.0,0.0,91,0.00,FEW,,0.02,WeatherDisplay:10.37,2013-05-21 01:37:00,
2013-05-20 21:42:00,67.9,65.2,29.98,WNW,292,0.0,0.0,91,0.00,FEW,,0.02,WeatherDisplay:10.37,2013-05-21 01:42:00,
2013-05-20 21:47:00,67.7,65.0,29.98,WNW,292,0.0,0.0,91,0.00,FEW,,0.02,WeatherDisplay:10.37,2013-05-21 01:47:00,
2013-05-20 21:52:00,67.4,65.3,29.98,WNW,292,0.0,0.0,93,0.00,FEW,,0.02,WeatherDisplay:10.37,2013-05-21 01:52:00,
2013-05-20 21:57:00,67.2,65.4,29.98,WNW,292,0.0,0.0,94,0.00,FEW,,0.02,WeatherDisplay:10.37,2013-05-21 01:57:00,
2013-05-20 22:02:00,67.1,65.9,29.98,WNW,292,0.0,0.0,96,0.00,CLR,,0.02,WeatherDisplay:10.37,2013-05-21 02:02:00,
2013-05-20 22:07:00,66.9,65.1,29.98,WNW,292,0.0,0.0,94,0.00,CLR,,0.02,WeatherDisplay:10.37,2013-05-21 02:07:00,
2013-05-20 22:12:00,66.6,65.1,29.98,WNW,292,0.0,0.0,95,0.00,CLR,,0.02,WeatherDisplay:10.37,2013-05-21 02:12:00,
2013-05-20 22:17:00,66.5,65.3,29.98,WNW,292,0.0,0.0,96,0.00,CLR,,0.02,WeatherDisplay:10.37,2013-05-21 02:17:00,
2013-05-20 22:22:00,66.4,65.2,29.98,WNW,292,0.0,0.0,96,0.00,CLR,,0.02,WeatherDisplay:10.37,2013-05-21 02:22:00,
2013-05-20 22:28:00,66.3,65.4,29.98,WNW,292,0.0,0.0,97,0.00,CLR,,0.02,WeatherDisplay:10.37,2013-05-21 02:28:00,
2013-05-20 22:33:00,66.1,64.9,29.98,WNW,292,0.0,0.0,96,0.00,CLR,,0.02,WeatherDisplay:10.37,2013-05-21 02:33:00,
2013-05-20 22:37:00,65.9,64.7,29.97,WNW,292,0.0,0.0,96,0.00,CLR,,0.02,WeatherDisplay:10.37,2013-05-21 02:37:00,
2013-05-20 22:43:00,65.7,64.5,29.97,WNW,292,0.0,0.0,96,0.00,CLR,,0.02,WeatherDisplay:10.37,2013-05-21 02:43:00,
2013-05-20 22:48:00,65.6,64.7,29.97,WNW,292,0.0,0.0,97,0.00,CLR,,0.02,WeatherDisplay:10.37,2013-05-21 02:48:00,
2013-05-20 22:53:00,65.5,64.6,29.97,WNW,292,0.0,0.0,97,0.00,CLR,,0.02,WeatherDisplay:10.37,2013-05-21 02:53:00,
2013-05-20 22:58:00,65.3,64.4,29.97,WNW,292,0.0,0.0,97,0.00,CLR,,0.02,WeatherDisplay:10.37,2013-05-21 02:58:00,
2013-05-20 23:03:00,65.3,64.7,29.97,WNW,292,0.0,0.0,98,0.00,FEW,,0.02,WeatherDisplay:10.37,2013-05-21 03:03:00,
2013-05-20 23:08:00,65.1,64.5,29.97,WNW,292,0.0,0.0,98,0.00,FEW,,0.02,WeatherDisplay:10.37,2013-05-21 03:08:00,
2013-05-20 23:13:00,65.2,64.6,29.97,WNW,292,0.0,0.0,98,0.00,FEW,,0.02,WeatherDisplay:10.37,2013-05-21 03:13:00,
2013-05-20 23:18:00,64.9,64.3,29.97,WNW,292,0.0,0.0,98,0.00,FEW,,0.02,WeatherDisplay:10.37,2013-05-21 03:18:00,
2013-05-20 23:23:00,64.7,64.1,29.97,WNW,292,0.0,0.0,98,0.00,FEW,,0.02,WeatherDisplay:10.37,2013-05-21 03:23:00,
2013-05-20 23:28:00,64.7,64.1,29.97,WNW,292,0.0,0.0,98,0.00,FEW,,0.02,WeatherDisplay:10.37,2013-05-21 03:28:00,
2013-05-20 23:33:00,64.6,64.0,29.97,WNW,292,0.0,0.0,98,0.00,FEW,,0.02,WeatherDisplay:10.37,2013-05-21 03:33:00,
2013-05-20 23:38:00,64.5,63.9,29.97,WNW,292,0.0,0.0,98,0.00,FEW,,0.02,WeatherDisplay:10.37,2013-05-21 03:38:00,
2013-05-20 23:43:00,64.3,63.7,29.97,WNW,292,0.0,0.0,98,0.00,FEW,,0.02,WeatherDisplay:10.37,2013-05-21 03:43:00,
2013-05-20 23:48:00,63.9,63.3,29.97,WNW,292,0.0,0.0,98,0.00,FEW,,0.02,WeatherDisplay:10.37,2013-05-21 03:48:00,
2013-05-20 23:53:00,63.9,63.3,29.97,WNW,292,0.0,0.0,98,0.00,FEW,,0.02,WeatherDisplay:10.37,2013-05-21 03:53:00,
2013-05-20 23:58:00,63.9,63.3,29.97,WNW,292,0.0,0.0,98,0.00,FEW,,0.02,WeatherDisplay:10.37,2013-05-21 03:58:00,